^^
Jimboomba-Weather Station Historical Data
 
Daily Summary for June 19, 2021 Units:  Metric    English   Both
Daily Weekly Monthly Yearly
  Current: High: Low: Average:
Temperature: 9.6 °C 12.3 °C 8.3 °C 9.9 °C
Dew Point: 5.2 °C 5.2 °C 4.1 °C 4.7 °C
Humidity: 74% 76% 61% 70%
Wind Speed: 0km/h 8km/h 0km/h 0.8km/h
Wind Gust: 0km/h 16.1km/h - -
WindCalm - - SW
Pressure: 1010.0 hPa 1010.0 hPa 1008.3 hPa -
Precipitation: 0.0 mm      
 
 
Tabular Data for June 19, 2021
Time Temperature Dew Point Pressure Wind Wind Speed Wind Gust Humidity Rainfall Rate (Hourly) solar
00:00 12.3 °C 4.9 °C 1008.4 hPa WNW 8 km/h 16.1 km/h 61% 0.0 mm W/m2
00:15 12.2 °C 5.2 °C 1008.5 hPa Calm   16.1 km/h 62% 0.0 mm W/m2
00:30 12.1 °C 5 °C 1008.5 hPa Calm   6.4 km/h 62% 0.0 mm W/m2
00:45 11.7 °C 4.9 °C 1008.4 hPa Calm   3.2 km/h 63% 0.0 mm W/m2
01:00 11.4 °C 4.8 °C 1008.3 hPa Calm   4.8 km/h 64% 0.0 mm W/m2
01:15 11.1 °C 4.9 °C 1008.4 hPa WSW 3.2 km/h 6.4 km/h 66% 0.0 mm W/m2
01:30 10.7 °C 4.8 °C 1008.6 hPa SSE 4.8 km/h 9.7 km/h 67% 0.0 mm W/m2
01:45 10.4 °C 4.6 °C 1008.6 hPa ESE 1.6 km/h 8 km/h 67% 0.0 mm W/m2
02:00 10.5 °C 4.8 °C 1008.8 hPa Calm   6.4 km/h 68% 0.0 mm W/m2
02:15 10.4 °C 4.8 °C 1008.6 hPa Calm   3.2 km/h 68% 0.0 mm W/m2
02:30 10.2 °C 4.7 °C 1008.4 hPa Calm   8 km/h 69% 0.0 mm W/m2
02:45 9.9 °C 4.4 °C 1008.6 hPa Calm     69% 0.0 mm W/m2
03:00 9.6 °C 4.3 °C 1008.6 hPa Calm     70% 0.0 mm W/m2
03:15 9.3 °C 4.6 °C 1008.6 hPa Calm   8 km/h 72% 0.0 mm W/m2
03:30 9.1 °C 4.3 °C 1008.7 hPa Calm   3.2 km/h 72% 0.0 mm W/m2
03:45 8.7 °C 4.2 °C 1008.6 hPa Calm     73% 0.0 mm W/m2
04:00 8.6 °C 4.2 °C 1008.7 hPa Calm   6.4 km/h 74% 0.0 mm W/m2
04:15 8.3 °C 4.1 °C 1008.8 hPa Calm     75% 0.0 mm W/m2
04:30 8.3 °C 4.3 °C 1008.9 hPa Calm     76% 0.0 mm W/m2
04:45 8.8 °C 4.8 °C 1008.7 hPa West 3.2 km/h 9.7 km/h 76% 0.0 mm W/m2
05:00 8.9 °C 4.7 °C 1008.8 hPa Calm   9.7 km/h 75% 0.0 mm W/m2
05:15 8.9 °C 4.9 °C 1009.2 hPa Calm   6.4 km/h 76% 0.0 mm W/m2
05:30 8.9 °C 4.7 °C 1009.4 hPa Calm   3.2 km/h 75% 0.0 mm W/m2
05:45 9.1 °C 5.1 °C 1009.8 hPa Calm     76% 0.0 mm W/m2
06:00 9.4 °C 5.2 °C 1009.9 hPa Calm   1.6 km/h 75% 0.0 mm W/m2
06:15 9.6 °C 5.2 °C 1010.0 hPa Calm     74% 0.0 mm W/m2
Compliments of Weather Underground - 2 mb